ADDS METAR Data INFO
IDs: Format: Raw Decoded Include TAF

Data at: 0318 UTC 18 Aug 2017

KXBP 180315Z AUTO 00000KT 10SM CLR 24/19 A3003 RMK AO2 T02400191
KXBP 180255Z AUTO 00000KT 10SM CLR 24/19 A3002 RMK AO2 T02410190
KXBP 180235Z AUTO 00000KT 10SM CLR 25/19 A3002 RMK AO2 T02460187
KXBP 180215Z AUTO 00000KT 10SM CLR 25/18 A3000 RMK AO2 T02490183
KXBP 180155Z AUTO 23004KT 10SM CLR 25/19 A3000 RMK AO2 T02510187
KXBP 180135Z AUTO 23005KT 10SM CLR 26/19 A3000 RMK AO2 LTG DSNT S T02560192
KXBP 180115Z AUTO 20006KT 10SM CLR 26/20 A3000 RMK AO2 T02600197
KXBP 180055Z AUTO 21003KT 10SM CLR 26/20 A2999 RMK AO2 T02610196
KXBP 180035Z AUTO 22003KT 10SM CLR 26/20 A2999 RMK AO2 T02630203
KXBP 180015Z AUTO 24007KT 10SM CLR 27/21 A2999 RMK AO2 LTG DSNT S AND SW T02720208
KXBP 172355Z AUTO 23005KT 10SM CLR 28/20 A2999 RMK AO2 LTG DSNT S AND SW T02800204 10358 20280
KXBP 172335Z AUTO 19009KT 10SM VCTS SCT055 28/20 A2998 RMK AO2 LTG DSNT S T02840203
KXBP 172315Z AUTO 18010KT 10SM SCT055 30/21 A2999 RMK AO2 LTG DSNT S AND SW T03020205
KXBP 172255Z AUTO 13004KT 10SM CLR 34/22 A2997 RMK AO2 LTG DSNT S AND SW T03350216
KXBP 172235Z AUTO 11004KT 10SM CLR 34/22 A2997 RMK AO2 LTG DSNT S AND SW T03440218
KXBP 172215Z AUTO 08003KT 10SM CLR 34/21 A2995 RMK AO2 LTG DSNT S T03410205
KXBP 172155Z AUTO 09005KT 10SM CLR 35/21 A2996 RMK AO2 LTG DSNT S THRU W T03490209
KXBP 172135Z AUTO 10003KT 10SM CLR 35/20 A2996 RMK AO2 LTG DSNT SE THRU SW T03500199
KXBP 172115Z AUTO 13003KT 10SM CLR 35/19 A2996 RMK AO2 LTG DSNT SE AND SW T03490193
KXBP 172055Z AUTO 04005KT 10SM CLR 35/20 A2997 RMK AO2 LTG DSNT SE THRU SW T03540204
KXBP 172035Z AUTO 08003KT 10SM CLR 35/20 A2997 RMK AO2 LTG DSNT S AND SW T03500199
KXBP 172015Z AUTO 03003KT 10SM CLR 35/20 A2998 RMK AO2 LTG DSNT SE AND SW T03490197
KXBP 171955Z AUTO 09003KT 10SM CLR 35/20 A2999 RMK AO2 T03490203
KXBP 171935Z AUTO 00000KT 10SM CLR 34/20 A3000 RMK AO2 T03430199
KXBP 171915Z AUTO 27003KT 10SM CLR 33/20 A3002 RMK AO2 T03340197
KXBP 171855Z AUTO 32005KT 10SM CLR 34/20 A3002 RMK AO2 T03410199
KXBP 171835Z AUTO 36004KT 10SM CLR 34/20 A3002 RMK AO2 T03390203
KXBP 171815Z AUTO 00000KT 10SM CLR 33/20 A3003 RMK AO2 T03310202
KXBP 171755Z AUTO 33004KT 10SM CLR 33/20 A3003 RMK AO2 T03340198 10335 20232
KXBP 171735Z AUTO 25005KT 10SM CLR 33/21 A3003 RMK AO2 T03280209
KXBP 171715Z AUTO 26006KT 10SM CLR 32/21 A3003 RMK AO2 LTG DSNT E T03240212
KXBP 171655Z AUTO 26005KT 10SM CLR 32/21 A3003 RMK AO2 T03190214
KXBP 171635Z AUTO 25004KT 10SM CLR 32/21 A3003 RMK AO2 T03160213
KXBP 171615Z AUTO 24005KT 10SM CLR 31/21 A3004 RMK AO2 LTG DSNT SE T03100214
KXBP 171555Z AUTO 25004KT 10SM CLR 31/22 A3003 RMK AO2 T03050222
KXBP 171535Z AUTO 21004KT 10SM CLR 30/22 A3003 RMK AO2 T03010218
KXBP 171515Z AUTO 26004KT 10SM CLR 29/22 A3003 RMK AO2 T02940220
KXBP 171455Z AUTO 00000KT 10SM CLR 29/23 A3002 RMK AO2 T02850226
KXBP 171435Z AUTO 13006KT 10SM CLR 27/23 A3002 RMK AO2 T02730228
KXBP 171415Z AUTO 14007KT 10SM CLR 26/23 A3000 RMK AO2 T02640225
KXBP 171355Z AUTO 15007KT 10SM CLR 26/22 A3000 RMK AO2 T02580223
KXBP 171335Z AUTO 14007KT 10SM CLR 25/22 A2999 RMK AO2 LTG DSNT E T02470224
KXBP 171315Z AUTO 14007KT 10SM CLR 24/23 A2999 RMK AO2 LTG DSNT E T02370225
KXBP 171255Z AUTO 13007KT 10SM CLR 23/23 A2999 RMK AO2 T02320229
KXBP 171235Z AUTO 13007KT 10SM CLR 23/23 A2999 RMK AO2 LTG DSNT E T02330225
KXBP 171215Z AUTO 12006KT 10SM CLR 24/22 A3000 RMK AO2 LTG DSNT SE T02350218
KXBP 171155Z AUTO 08003KT 10SM CLR 24/22 A3000 RMK AO2 LTG DSNT NE AND E T02350216 10290 20235
KXBP 171135Z AUTO 10005KT 10SM CLR 24/22 A2999 RMK AO2 LTG DSNT E T02380215
KXBP 171115Z AUTO 09005KT 10SM CLR 24/22 A2999 RMK AO2 LTG DSNT NE AND E T02380215
KXBP 171055Z AUTO 07004KT 10SM VCTS CLR 24/22 A2998 RMK AO2 LTG DSNT NE AND E T02400215
KXBP 171035Z AUTO 05005KT 10SM VCTS CLR 24/22 A2997 RMK AO2 LTG DSNT NE AND E T02410215
KXBP 171015Z AUTO 02004KT 10SM VCTS CLR 25/21 A2995 RMK AO2 LTG DSNT NE THRU SW T02470212
KXBP 170955Z AUTO 12004KT 10SM TS SCT055 25/21 A2996 RMK AO2 LTG DSNT NE THRU SE T02500210
KXBP 170935Z AUTO 04004KT 10SM BKN055 BKN095 BKN120 27/21 A2996 RMK AO2 LTG DSNT ALQS T02650209
KXBP 170915Z AUTO 33003G08KT 10SM SCT036 BKN065 OVC120 27/21 A2997 RMK AO2 LTG DSNT N THRU SE T02710210
KXBP 170855Z AUTO 34009KT 10SM VCTS SCT065 28/21 A2998 RMK AO2 LTG DSNT ALQS T02770208
KXBP 170835Z AUTO 20008KT 10SM VCTS CLR 28/21 A2995 RMK AO2 LTG DSNT NW THRU NE T02810206
KXBP 170815Z AUTO 19008G15KT 10SM CLR 28/21 A2994 RMK AO2 LTG DSNT NW THRU NE T02830205
KXBP 170755Z AUTO 18009KT 10SM CLR 28/20 A2994 RMK AO2 LTG DSNT NW THRU NE T02820204
KXBP 170735Z AUTO 18009KT 10SM CLR 28/20 A2994 RMK AO2 LTG DSNT N AND NE T02820202
KXBP 170715Z AUTO 17005KT 10SM SCT090 28/20 A2993 RMK AO2 LTG DSNT NW THRU NE T02800201
KXBP 170655Z AUTO 19007KT 10SM SCT070 SCT080 29/20 A2992 RMK AO2 LTG DSNT N AND NE T02850201
KXBP 170635Z AUTO 19007KT 10SM CLR 29/20 A2991 RMK AO2 LTG DSNT N T02880199
KXBP 170615Z AUTO 18007KT 10SM CLR 29/20 A2991 RMK AO2 LTG DSNT N T02870200
KXBP 170555Z AUTO 18006KT 10SM CLR 29/20 A2991 RMK AO2 LTG DSNT N AND NE T02870200 10325 20285 403390257
KXBP 170535Z AUTO 19007KT 10SM CLR 29/20 A2991 RMK AO2 LTG DSNT NW THRU NE T02870201
KXBP 170515Z AUTO 19005KT 10SM CLR 29/20 A2992 RMK AO2 LTG DSNT NE T02860203
KXBP 170455Z AUTO 19004KT 10SM CLR 29/21 A2993 RMK AO2 LTG DSNT SW T02860205
KXBP 170435Z AUTO 18006KT 10SM SCT070 29/21 A2992 RMK AO2 T02900205
KXBP 170415Z AUTO 18004KT 10SM CLR 29/21 A2992 RMK AO2 LTG DSNT SW T02880208
KXBP 170355Z AUTO 17006KT 10SM CLR 29/21 A2990 RMK AO2 T02890209
KXBP 170335Z AUTO 18005KT 10SM CLR 29/21 A2989 RMK AO2 T02880210
KXBP 170315Z AUTO 19006KT 10SM CLR 29/21 A2989 RMK AO2 T02910212
KXBP 170255Z AUTO 19005KT 10SM CLR 30/21 A2990 RMK AO2 LTG DSNT SW T02950214
KXBP 170235Z AUTO 19005KT 10SM CLR 30/22 A2989 RMK AO2 T02980217
KXBP 170215Z AUTO 19007KT 10SM CLR 30/22 A2988 RMK AO2 T02990222
KXBP 170155Z AUTO 18005KT 10SM CLR 30/23 A2988 RMK AO2 T02950232
KXBP 170135Z AUTO 16005KT 10SM CLR 30/24 A2987 RMK AO2 T02950235
KXBP 170115Z AUTO 16003KT 10SM CLR 30/24 A2987 RMK AO2 T03000235
KXBP 170055Z AUTO 15004KT 10SM CLR 31/23 A2986 RMK AO2 T03070232
KXBP 170035Z AUTO 16005KT 10SM CLR 32/23 A2987 RMK AO2 T03160232
KXBP 170015Z AUTO 16006KT 10SM CLR 32/23 A2987 RMK AO2 T03210232
KXBP 162355Z AUTO 15006KT 10SM CLR 33/23 A2987 RMK AO2 T03250227 10339 20292
KXBP 162335Z AUTO 16009KT 10SM CLR 33/23 A2987 RMK AO2 LTG DSNT SW T03290225
KXBP 162315Z AUTO 16009KT 10SM CLR 33/23 A2987 RMK AO2 T03290225
KXBP 162255Z AUTO 16009G14KT 10SM CLR 33/23 A2988 RMK AO2 T03300228
KXBP 162235Z AUTO 18009KT 10SM SCT040 SCT047 34/23 A2988 RMK AO2 T03350227
KXBP 162215Z AUTO 17008KT 10SM SCT040 SCT047 33/23 A2988 RMK AO2 T03330227
KXBP 162155Z AUTO 16011G14KT 10SM SCT040 SCT046 33/23 A2988 RMK AO2 T03340228
KXBP 162135Z AUTO 17010KT 10SM BKN040 33/23 A2988 RMK AO2 T03310226
KXBP 162115Z AUTO 16010KT 10SM SCT040 33/23 A2989 RMK AO2 T03330227
KXBP 162055Z AUTO 20010G15KT 10SM CLR 33/23 A2989 RMK AO2 T03330225
KXBP 162035Z AUTO 18010G16KT 10SM SCT035 34/23 A2990 RMK AO2 T03360227
KXBP 162015Z AUTO 18009KT 10SM SCT035 SCT120 33/22 A2990 RMK AO2 T03280222
KXBP 161955Z AUTO 15009KT 10SM SCT120 32/23 A2990 RMK AO2 T03210226
KXBP 161935Z AUTO 16009KT 10SM SCT034 32/23 A2991 RMK AO2 T03240226
KXBP 161915Z AUTO 20009KT 10SM SCT120 32/23 A2992 RMK AO2 T03200226
KXBP 161855Z AUTO 19010KT 10SM SCT120 31/22 A2993 RMK AO2 T03080224
KXBP 161835Z AUTO 19007KT CLR 31/22 A2994 RMK AO2 T03050223 PWINO
KXBP 161815Z AUTO 21008G14KT 10SM SCT110 30/22 A2995 RMK AO2 T02950220 PWINO
KXBP 161755Z AUTO 20006KT SCT110 29/22 A2995 RMK AO2 T02930222 10306 20263 PWINO
KXBP 161735Z AUTO 20009G17KT SCT120 29/22 A2995 RMK AO2 LTG DSNT NE T02930222 PWINO
KXBP 161715Z AUTO 19011G14KT 10SM CLR 29/22 A2995 RMK AO2 LTG DSNT NE T02930220
KXBP 161655Z AUTO 18011G16KT CLR 30/22 A2995 RMK AO2 LTG DSNT NE T02980221 PWINO
KXBP 161635Z AUTO 19010G14KT CLR 31/22 A2995 RMK AO2 LTG DSNT NE T03050221 PWINO
KXBP 161615Z AUTO 20008KT SCT070 SCT095 29/22 A2995 RMK AO2 T02930221
KXBP 161555Z AUTO 19009KT SCT085 28/22 A2995 RMK AO2 T02790216 PWINO
KXBP 161535Z AUTO 20008KT BKN085 28/22 A2995 RMK AO2 T02800216